createdAt,value
2023-03-11T00:01:31.793Z,52.00
2023-03-11T00:04:00.965Z,53.83
2023-03-11T00:06:30.218Z,57.23
2023-03-11T00:09:02.939Z,55.50
2023-03-11T00:11:31.683Z,58.03
2023-03-11T00:14:01.515Z,66.20
2023-03-11T00:16:30.037Z,70.80
2023-03-11T00:19:02.023Z,77.13
2023-03-11T00:21:35.700Z,65.93
2023-03-11T00:24:08.875Z,68.13
2023-03-11T00:26:37.724Z,70.27
2023-03-11T00:29:06.492Z,69.87
2023-03-11T00:31:35.728Z,61.13
2023-03-11T00:34:21.880Z,68.77
2023-03-11T00:36:53.241Z,84.63
2023-03-11T00:39:23.579Z,73.57
2023-03-11T00:41:56.931Z,65.90
2023-03-11T00:44:25.418Z,64.53
2023-03-11T00:46:53.271Z,65.73
2023-03-11T00:49:21.303Z,64.63
2023-03-11T00:51:51.926Z,65.87
2023-03-11T00:54:20.316Z,73.17
2023-03-11T00:56:48.660Z,67.27
2023-03-11T00:59:19.326Z,61.87
2023-03-11T01:01:47.897Z,77.33
2023-03-11T01:04:16.973Z,90.50
2023-03-11T01:06:46.321Z,66.83
2023-03-11T01:09:16.337Z,58.40
2023-03-11T01:11:45.903Z,81.83
2023-03-11T01:14:31.933Z,63.30
2023-03-11T01:16:59.978Z,61.63
2023-03-11T01:19:27.932Z,74.77
2023-03-11T01:21:55.832Z,85.13
2023-03-11T01:24:24.825Z,65.63
2023-03-11T01:26:56.869Z,74.27
2023-03-11T01:29:25.861Z,56.93
2023-03-11T01:31:53.882Z,58.80
2023-03-11T01:34:21.920Z,63.40
2023-03-11T01:36:55.770Z,70.73
2023-03-11T01:39:23.892Z,114.13
2023-03-11T01:41:53.591Z,48.53
2023-03-11T01:44:22.423Z,86.27
2023-03-11T01:46:54.111Z,51.47
2023-03-11T01:49:27.303Z,42.70
2023-03-11T01:52:01.363Z,94.40
2023-03-11T01:54:32.345Z,54.53
2023-03-11T01:57:02.099Z,62.80
2023-03-11T01:59:34.727Z,65.00
2023-03-11T02:02:28.819Z,72.90
2023-03-11T02:04:57.458Z,30.83
2023-03-11T02:07:25.772Z,79.73
2023-03-11T02:10:02.528Z,101.50
2023-03-11T02:12:31.933Z,46.77
2023-03-11T02:15:00.785Z,33.23
2023-03-11T02:17:35.814Z,81.67
2023-03-11T02:20:35.368Z,73.23
2023-03-11T02:23:03.518Z,87.63
2023-03-11T02:25:37.569Z,50.87
2023-03-11T02:28:10.050Z,68.13
2023-03-11T02:30:40.706Z,93.63
2023-03-11T02:33:10.997Z,158.80
2023-03-11T02:35:42.636Z,68.60
2023-03-11T02:38:11.636Z,52.47
2023-03-11T02:40:49.952Z,53.37
2023-03-11T02:43:22.594Z,34.90
2023-03-11T02:45:51.033Z,55.53
2023-03-11T02:48:25.019Z,41.77
2023-03-11T02:50:53.844Z,66.57
2023-03-11T02:53:22.468Z,56.13
2023-03-11T02:55:50.517Z,37.67
2023-03-11T02:58:18.646Z,37.97
2023-03-11T03:00:50.542Z,35.87
2023-03-11T03:03:18.671Z,38.23
2023-03-11T03:05:50.262Z,35.87
2023-03-11T03:08:21.848Z,29.37
2023-03-11T03:10:50.328Z,39.40
2023-03-11T03:13:18.393Z,35.03
2023-03-11T03:15:47.319Z,39.60
2023-03-11T03:18:17.101Z,37.07
2023-03-11T03:20:45.280Z,43.77
2023-03-11T03:23:14.458Z,35.20
2023-03-11T03:25:44.038Z,35.03
2023-03-11T03:28:15.388Z,36.57
2023-03-11T03:30:45.690Z,38.00
2023-03-11T03:33:14.009Z,41.47
2023-03-11T03:35:44.940Z,39.73
2023-03-11T03:38:15.484Z,47.67
2023-03-11T03:40:47.881Z,42.33
2023-03-11T03:43:15.781Z,40.00
2023-03-11T03:45:45.613Z,44.40
2023-03-11T03:48:13.778Z,41.63
2023-03-11T03:50:44.675Z,62.73
2023-03-11T03:53:12.700Z,54.23
2023-03-11T03:55:40.679Z,41.00
2023-03-11T03:58:09.236Z,44.00
2023-03-11T04:00:37.795Z,51.40
2023-03-11T04:03:07.028Z,51.87
2023-03-11T04:05:35.411Z,37.10
2023-03-11T04:08:03.610Z,40.47
2023-03-11T04:10:32.748Z,39.33
2023-03-11T04:13:00.994Z,38.93
2023-03-11T04:15:29.833Z,39.57
2023-03-11T04:18:05.949Z,35.60
2023-03-11T04:20:34.348Z,33.80
2023-03-11T04:23:02.550Z,33.50
2023-03-11T04:25:30.989Z,30.70
2023-03-11T04:28:00.156Z,27.47
2023-03-11T04:30:29.124Z,24.87
2023-03-11T04:32:57.254Z,26.40
2023-03-11T04:35:29.078Z,22.83
2023-03-11T04:37:59.517Z,23.57
2023-03-11T04:40:28.675Z,23.73
2023-03-11T04:42:58.527Z,25.77
2023-03-11T04:45:26.323Z,25.20
2023-03-11T04:47:54.351Z,22.43
2023-03-11T04:50:22.325Z,18.93
2023-03-11T04:52:50.627Z,19.07
2023-03-11T04:55:21.233Z,22.90
2023-03-11T04:57:51.586Z,18.70
2023-03-11T05:00:25.162Z,15.20
2023-03-11T05:02:53.599Z,14.80
2023-03-11T05:05:22.122Z,13.03
2023-03-11T05:07:50.934Z,14.97
2023-03-11T05:10:22.880Z,13.07
2023-03-11T05:12:51.585Z,15.50
2023-03-11T05:15:21.355Z,22.57
2023-03-11T05:17:49.635Z,21.83
2023-03-11T05:20:19.825Z,19.37
2023-03-11T05:22:49.627Z,19.83
2023-03-11T05:25:18.095Z,19.13
2023-03-11T05:27:56.255Z,19.20
2023-03-11T05:30:28.466Z,19.60
2023-03-11T05:32:59.510Z,19.50
2023-03-11T05:35:27.866Z,17.23
2023-03-11T05:37:56.246Z,20.93
2023-03-11T05:40:37.794Z,15.17
2023-03-11T05:43:10.451Z,16.73
2023-03-11T05:45:40.370Z,20.23
2023-03-11T05:48:09.391Z,17.17
2023-03-11T05:50:41.090Z,16.37
2023-03-11T05:53:09.934Z,17.13
2023-03-11T05:55:38.531Z,15.97
2023-03-11T05:58:07.640Z,16.23
2023-03-11T06:00:37.183Z,18.17
2023-03-11T06:03:23.174Z,14.40
2023-03-11T06:05:51.830Z,15.47
2023-03-11T06:08:23.899Z,16.20
2023-03-11T06:10:54.618Z,15.90
2023-03-11T06:13:23.630Z,16.50
2023-03-11T06:15:52.177Z,16.43
2023-03-11T06:18:27.121Z,20.10
2023-03-11T06:20:59.224Z,19.73
2023-03-11T06:23:28.345Z,21.37
2023-03-11T06:26:01.219Z,15.50
2023-03-11T06:28:30.308Z,18.23
2023-03-11T06:31:07.715Z,17.63
2023-03-11T06:33:35.977Z,14.90
2023-03-11T06:36:05.500Z,16.33
2023-03-11T06:38:37.641Z,16.40
2023-03-11T06:41:06.940Z,16.30
2023-03-11T06:43:35.607Z,15.87
2023-03-11T06:46:10.011Z,15.33
2023-03-11T06:48:38.244Z,16.60
2023-03-11T06:51:06.997Z,13.57
2023-03-11T06:53:36.175Z,16.10
2023-03-11T06:56:11.076Z,14.03
2023-03-11T06:58:41.060Z,14.93
2023-03-11T07:01:15.761Z,14.97
2023-03-11T07:03:47.036Z,14.73
2023-03-11T07:06:21.081Z,14.87
2023-03-11T07:08:50.862Z,14.67
2023-03-11T07:11:21.608Z,15.30
2023-03-11T07:13:49.921Z,20.00
2023-03-11T07:16:21.172Z,15.40
2023-03-11T07:18:50.671Z,14.80
2023-03-11T07:21:21.294Z,17.63
2023-03-11T07:23:53.414Z,14.10
2023-03-11T07:26:22.544Z,15.83
2023-03-11T07:28:50.830Z,15.13
2023-03-11T07:31:23.749Z,16.87
2023-03-11T07:33:53.540Z,17.93
2023-03-11T07:36:24.282Z,16.47
2023-03-11T07:39:04.209Z,18.80
2023-03-11T07:41:35.418Z,20.00
2023-03-11T07:44:06.815Z,17.03
2023-03-11T07:46:35.355Z,18.07
2023-03-11T07:49:04.201Z,19.10
2023-03-11T07:51:35.758Z,17.73
2023-03-11T07:54:04.721Z,16.30
2023-03-11T07:56:34.789Z,15.63
2023-03-11T07:59:04.383Z,13.93
2023-03-11T08:01:41.590Z,16.33
2023-03-11T08:04:14.442Z,13.47
2023-03-11T08:06:47.669Z,11.70
2023-03-11T08:09:15.766Z,16.27
2023-03-11T08:11:46.467Z,12.50
2023-03-11T08:14:15.691Z,11.33
2023-03-11T08:16:48.813Z,9.40
2023-03-11T08:19:16.739Z,9.47
2023-03-11T08:21:44.670Z,15.07
2023-03-11T08:24:14.647Z,10.60
2023-03-11T08:26:43.746Z,8.93
2023-03-11T08:29:12.096Z,9.43
2023-03-11T08:31:40.366Z,10.97
2023-03-11T08:34:10.824Z,11.23
2023-03-11T08:36:39.132Z,9.20
2023-03-11T08:39:07.538Z,12.13
2023-03-11T08:41:36.501Z,11.10
2023-03-11T08:44:08.181Z,11.87
2023-03-11T08:46:39.157Z,12.63
2023-03-11T08:49:07.592Z,13.57
2023-03-11T08:51:37.043Z,14.60
2023-03-11T08:54:10.579Z,18.97
2023-03-11T08:56:40.084Z,12.33
2023-03-11T08:59:09.186Z,10.93
2023-03-11T09:01:38.678Z,13.70
2023-03-11T09:04:06.852Z,13.60
2023-03-11T09:06:44.918Z,13.10
2023-03-11T09:09:14.372Z,11.63
2023-03-11T09:11:42.882Z,13.17
2023-03-11T09:14:11.413Z,14.40
2023-03-11T09:16:40.505Z,14.67
2023-03-11T09:19:08.521Z,14.20
2023-03-11T09:21:37.625Z,14.23
2023-03-11T09:24:10.403Z,14.37
2023-03-11T09:26:39.849Z,13.90
2023-03-11T09:29:07.876Z,12.33
2023-03-11T09:31:36.433Z,12.57
2023-03-11T09:34:05.110Z,12.53
2023-03-11T09:36:33.801Z,11.97
2023-03-11T09:39:04.844Z,13.53
2023-03-11T09:41:58.806Z,12.73
2023-03-11T09:44:48.659Z,11.00
2023-03-11T09:47:29.169Z,11.00
2023-03-11T09:50:15.362Z,11.30
2023-03-11T09:52:57.260Z,10.83
2023-03-11T09:55:28.643Z,11.10
2023-03-11T09:57:58.519Z,11.47
2023-03-11T10:00:26.646Z,11.17
2023-03-11T10:02:55.508Z,12.87
2023-03-11T10:05:28.989Z,14.33
2023-03-11T10:08:16.742Z,16.20
2023-03-11T10:10:52.213Z,13.50
2023-03-11T10:13:34.537Z,15.00
2023-03-11T10:16:30.195Z,14.77
2023-03-11T10:19:08.848Z,16.27
2023-03-11T10:22:15.376Z,12.60
2023-03-11T10:24:58.568Z,13.13
2023-03-11T10:27:33.649Z,12.10
2023-03-11T10:30:29.628Z,13.47
2023-03-11T10:33:12.801Z,11.73
2023-03-11T10:35:42.756Z,11.90
2023-03-11T10:38:35.595Z,14.37
2023-03-11T10:41:39.602Z,13.83
2023-03-11T10:44:15.111Z,13.23
2023-03-11T10:46:43.985Z,13.07
2023-03-11T10:49:16.120Z,14.40
2023-03-11T10:51:50.171Z,13.87
2023-03-11T10:54:28.802Z,14.57
2023-03-11T10:57:04.678Z,17.13
2023-03-11T10:59:38.338Z,14.13
2023-03-11T11:02:43.827Z,13.00
2023-03-11T11:05:20.591Z,13.20
2023-03-11T11:07:50.072Z,11.60
2023-03-11T11:10:25.686Z,11.00
2023-03-11T11:12:59.736Z,10.80
2023-03-11T11:15:27.897Z,10.43
2023-03-11T11:18:26.294Z,11.23
2023-03-11T11:21:07.641Z,10.23
2023-03-11T11:23:49.505Z,8.87
2023-03-11T11:26:21.980Z,9.90
2023-03-11T11:29:15.081Z,8.90
2023-03-11T11:31:45.638Z,10.73
2023-03-11T11:34:35.368Z,9.30
2023-03-11T11:37:06.704Z,8.57
2023-03-11T11:39:52.213Z,7.73
2023-03-11T11:42:21.284Z,7.60
2023-03-11T11:44:53.997Z,7.47
2023-03-11T11:47:35.919Z,6.57
2023-03-11T11:50:07.612Z,6.67
2023-03-11T11:52:38.464Z,7.47
2023-03-11T11:55:25.700Z,8.63
2023-03-11T11:57:54.042Z,7.47
2023-03-11T12:00:46.527Z,7.33
2023-03-11T12:03:40.222Z,8.17
2023-03-11T12:06:18.229Z,7.97
2023-03-11T12:09:24.576Z,9.07
2023-03-11T12:12:17.209Z,10.03
2023-03-11T12:14:48.432Z,10.07
2023-03-11T12:17:18.575Z,9.87
2023-03-11T12:19:53.264Z,9.60
2023-03-11T12:22:46.443Z,8.93
2023-03-11T12:25:25.613Z,8.73
2023-03-11T12:28:15.066Z,11.80
2023-03-11T12:30:47.187Z,11.37
2023-03-11T12:33:25.733Z,10.57
2023-03-11T12:35:59.170Z,9.13
2023-03-11T12:38:33.415Z,10.73
2023-03-11T12:41:31.360Z,9.47
2023-03-11T12:44:22.997Z,11.53
2023-03-11T12:47:03.214Z,9.43
2023-03-11T12:49:43.757Z,13.70
2023-03-11T12:52:11.915Z,11.90
2023-03-11T12:54:45.119Z,13.17
2023-03-11T12:57:19.723Z,10.90
2023-03-11T13:00:19.163Z,11.50
2023-03-11T13:02:59.263Z,10.97
2023-03-11T13:05:45.612Z,10.83
2023-03-11T13:08:25.461Z,12.53
2023-03-11T13:10:56.570Z,7.87
2023-03-11T13:13:36.717Z,12.50
2023-03-11T13:16:15.373Z,12.73
2023-03-11T13:18:45.081Z,12.20
2023-03-11T13:21:34.604Z,10.83
2023-03-11T13:24:34.813Z,10.60
2023-03-11T13:27:14.930Z,11.63
2023-03-11T13:30:01.236Z,10.37
2023-03-11T13:33:17.152Z,12.07
2023-03-11T13:35:52.315Z,11.77
2023-03-11T13:38:29.768Z,10.73
2023-03-11T13:40:58.740Z,7.93
2023-03-11T13:43:27.597Z,10.63
2023-03-11T13:46:01.765Z,9.77
2023-03-11T13:48:46.357Z,11.90
2023-03-11T13:51:23.525Z,13.40
2023-03-11T13:53:57.491Z,11.27
2023-03-11T13:56:32.741Z,12.77
2023-03-11T13:59:39.166Z,10.13
2023-03-11T14:02:17.567Z,13.10
2023-03-11T14:04:51.808Z,11.47
2023-03-11T14:07:39.002Z,12.63
2023-03-11T14:10:26.860Z,12.20
2023-03-11T14:13:07.107Z,13.10
2023-03-11T14:15:45.292Z,11.33
2023-03-11T14:18:39.809Z,11.80
2023-03-11T14:21:14.724Z,10.37
2023-03-11T14:23:48.809Z,15.63
2023-03-11T14:26:35.939Z,11.63
2023-03-11T14:29:17.916Z,12.90
2023-03-11T14:31:47.151Z,13.03
2023-03-11T14:34:19.089Z,10.73
2023-03-11T14:36:49.940Z,12.17
2023-03-11T14:39:36.529Z,11.63
2023-03-11T14:42:04.585Z,9.70
2023-03-11T14:44:36.889Z,12.33
2023-03-11T14:47:30.577Z,10.53
2023-03-11T14:49:59.991Z,11.07
2023-03-11T14:52:42.755Z,12.90
2023-03-11T14:55:35.466Z,12.63
2023-03-11T14:58:11.869Z,11.80
2023-03-11T15:00:45.578Z,12.70
2023-03-11T15:03:23.933Z,12.63
2023-03-11T15:06:07.893Z,9.53
2023-03-11T15:08:44.301Z,10.30
2023-03-11T15:11:12.920Z,11.20
2023-03-11T15:13:44.033Z,12.60
2023-03-11T15:16:24.628Z,14.27
2023-03-11T15:18:55.475Z,9.87
2023-03-11T15:21:25.454Z,15.13
2023-03-11T15:24:00.365Z,13.73
2023-03-11T15:26:30.800Z,10.03
2023-03-11T15:29:19.203Z,11.50
2023-03-11T15:31:48.896Z,14.07
2023-03-11T15:34:17.323Z,11.60
2023-03-11T15:36:59.746Z,13.10
2023-03-11T15:39:33.903Z,15.00
2023-03-11T15:42:06.669Z,12.93
2023-03-11T15:44:42.094Z,12.93
2023-03-11T15:47:15.455Z,15.77
2023-03-11T15:49:44.138Z,12.23
2023-03-11T15:52:13.557Z,17.10
2023-03-11T15:54:54.503Z,15.47
2023-03-11T15:57:26.923Z,16.07
2023-03-11T16:00:01.640Z,13.53
2023-03-11T16:02:31.746Z,16.37
2023-03-11T16:05:01.327Z,14.30
2023-03-11T16:07:38.994Z,15.27
2023-03-11T16:10:10.114Z,13.37
2023-03-11T16:12:49.248Z,14.47
2023-03-11T16:15:33.847Z,12.77
2023-03-11T16:18:09.028Z,18.03
2023-03-11T16:20:48.796Z,15.83
2023-03-11T16:23:23.147Z,17.87
2023-03-11T16:25:54.712Z,12.73
2023-03-11T16:28:23.535Z,16.50
2023-03-11T16:30:54.645Z,16.20
2023-03-11T16:33:23.532Z,15.20
2023-03-11T16:35:52.172Z,13.83
2023-03-11T16:38:23.297Z,13.90
2023-03-11T16:40:59.798Z,15.63
2023-03-11T16:43:29.710Z,13.73
2023-03-11T16:45:59.473Z,13.83
2023-03-11T16:48:33.196Z,18.03
2023-03-11T16:51:03.179Z,13.50
2023-03-11T16:53:31.164Z,12.63
2023-03-11T16:56:01.930Z,14.30
2023-03-11T16:58:30.262Z,11.67
2023-03-11T17:01:00.374Z,16.40
2023-03-11T17:03:34.443Z,15.50
2023-03-11T17:06:09.784Z,26.20
2023-03-11T17:08:40.942Z,12.63
2023-03-11T17:11:15.990Z,14.37
2023-03-11T17:13:44.165Z,13.63
2023-03-11T17:16:12.791Z,15.40
2023-03-11T17:18:42.187Z,12.37
2023-03-11T17:21:14.990Z,12.03
2023-03-11T17:23:43.832Z,13.60
2023-03-11T17:26:15.896Z,12.73
2023-03-11T17:28:45.056Z,15.60
2023-03-11T17:31:15.664Z,12.20
2023-03-11T17:33:44.304Z,15.17
2023-03-11T17:36:17.642Z,11.77
2023-03-11T17:38:47.236Z,12.47
2023-03-11T17:41:17.434Z,14.63
2023-03-11T17:43:46.074Z,9.60
2023-03-11T17:46:16.545Z,13.43
2023-03-11T17:48:48.412Z,12.83
2023-03-11T17:51:20.225Z,13.30
2023-03-11T17:53:50.004Z,11.63
2023-03-11T17:56:22.214Z,15.50
2023-03-11T17:58:51.825Z,11.97
2023-03-11T18:01:22.460Z,13.27
2023-03-11T18:03:51.787Z,12.37
2023-03-11T18:06:21.263Z,13.23
2023-03-11T18:08:55.399Z,14.07
2023-03-11T18:11:28.155Z,10.00
2023-03-11T18:13:56.518Z,12.87
2023-03-11T18:16:28.267Z,12.70
2023-03-11T18:18:58.379Z,14.43
2023-03-11T18:21:29.488Z,14.63
2023-03-11T18:24:01.072Z,12.30
2023-03-11T18:26:32.398Z,12.50
2023-03-11T18:29:01.302Z,18.33
2023-03-11T18:31:34.970Z,15.07
2023-03-11T18:34:05.622Z,15.50
2023-03-11T18:36:36.674Z,14.90
2023-03-11T18:39:11.577Z,17.37
2023-03-11T18:41:42.813Z,15.10
2023-03-11T18:44:19.244Z,12.30
2023-03-11T18:46:47.749Z,14.97
2023-03-11T18:49:17.269Z,12.63
2023-03-11T18:51:48.156Z,14.33
2023-03-11T18:54:16.295Z,12.03
2023-03-11T18:56:45.187Z,13.80
2023-03-11T18:59:17.053Z,12.80
2023-03-11T19:01:45.173Z,11.53
2023-03-11T19:04:13.217Z,12.00
2023-03-11T19:06:41.809Z,14.37
2023-03-11T19:09:11.257Z,11.30
2023-03-11T19:11:56.638Z,11.00
2023-03-11T19:14:25.128Z,11.40
2023-03-11T19:16:57.050Z,10.53
2023-03-11T19:19:26.602Z,12.57
2023-03-11T19:21:54.705Z,14.80
2023-03-11T19:24:24.087Z,17.23
2023-03-11T19:26:52.548Z,10.43
2023-03-11T19:29:21.957Z,12.77
2023-03-11T19:31:51.054Z,17.23
2023-03-11T19:34:23.147Z,16.60
2023-03-11T19:36:51.276Z,14.67
2023-03-11T19:39:19.516Z,13.33
2023-03-11T19:41:47.589Z,13.07
2023-03-11T19:44:20.847Z,14.30
2023-03-11T19:46:49.227Z,16.13
2023-03-11T19:49:17.516Z,14.53
2023-03-11T19:51:50.626Z,15.67
2023-03-11T19:54:22.048Z,13.87
2023-03-11T19:56:51.177Z,19.10
2023-03-11T19:59:19.610Z,17.17
2023-03-11T20:01:47.851Z,16.53
2023-03-11T20:04:16.932Z,16.93
2023-03-11T20:06:45.764Z,15.47
2023-03-11T20:09:17.257Z,16.93
2023-03-11T20:11:49.251Z,12.67
2023-03-11T20:14:19.097Z,16.73
2023-03-11T20:16:47.675Z,15.10
2023-03-11T20:19:15.961Z,17.50
2023-03-11T20:21:45.945Z,12.87
2023-03-11T20:24:14.630Z,12.33
2023-03-11T20:26:43.216Z,14.40
2023-03-11T20:29:11.601Z,15.03
2023-03-11T20:31:42.739Z,20.53
2023-03-11T20:34:12.650Z,14.90
2023-03-11T20:36:44.837Z,15.37
2023-03-11T20:39:16.509Z,14.43
2023-03-11T20:41:45.385Z,16.37
2023-03-11T20:44:14.559Z,15.40
2023-03-11T20:46:43.499Z,17.97
2023-03-11T20:49:12.704Z,19.30
2023-03-11T20:51:44.180Z,19.87
2023-03-11T20:54:15.589Z,15.20
2023-03-11T20:56:44.153Z,19.73
2023-03-11T20:59:15.262Z,18.63
2023-03-11T21:01:43.998Z,15.83
2023-03-11T21:04:16.342Z,18.60
2023-03-11T21:06:50.260Z,19.63
2023-03-11T21:09:23.503Z,19.53
2023-03-11T21:11:57.721Z,15.80
2023-03-11T21:14:28.934Z,16.07
2023-03-11T21:16:57.434Z,17.97
2023-03-11T21:19:25.663Z,20.17
2023-03-11T21:21:57.686Z,21.10
2023-03-11T21:24:25.919Z,19.10
2023-03-11T21:26:56.743Z,19.17
2023-03-11T21:29:27.175Z,15.53
2023-03-11T21:31:55.656Z,18.87
2023-03-11T21:34:24.182Z,18.47
2023-03-11T21:36:54.908Z,17.87
2023-03-11T21:39:23.463Z,19.17
2023-03-11T21:41:55.149Z,20.47
2023-03-11T21:44:23.865Z,19.37
2023-03-11T21:46:52.519Z,21.63
2023-03-11T21:49:23.468Z,23.73
2023-03-11T21:51:51.529Z,23.57
2023-03-11T21:54:19.523Z,20.97
2023-03-11T21:56:47.521Z,21.33
2023-03-11T21:59:40.738Z,22.83
2023-03-11T22:02:16.487Z,24.20
2023-03-11T22:04:46.211Z,26.03
2023-03-11T22:07:14.445Z,23.70
2023-03-11T22:09:45.204Z,21.90
2023-03-11T22:12:15.420Z,22.00
2023-03-11T22:14:44.052Z,21.33
2023-03-11T22:17:13.958Z,18.90
2023-03-11T22:19:42.823Z,19.10
2023-03-11T22:22:11.075Z,21.47
2023-03-11T22:24:39.614Z,19.80
2023-03-11T22:27:07.942Z,21.20
2023-03-11T22:29:38.232Z,19.37
2023-03-11T22:32:11.288Z,15.83
2023-03-11T22:34:39.961Z,20.07
2023-03-11T22:37:08.759Z,22.07
2023-03-11T22:39:37.380Z,19.67
2023-03-11T22:42:05.830Z,20.43
2023-03-11T22:44:34.313Z,16.37
2023-03-11T22:47:02.318Z,18.00
2023-03-11T22:49:30.563Z,26.73
2023-03-11T22:51:58.841Z,17.57
2023-03-11T22:54:26.898Z,18.70
2023-03-11T22:56:56.139Z,20.60
2023-03-11T22:59:27.449Z,19.87
2023-03-11T23:01:55.692Z,20.97
2023-03-11T23:04:24.226Z,17.03
2023-03-11T23:06:54.656Z,15.57
2023-03-11T23:09:23.190Z,17.10
2023-03-11T23:11:52.387Z,21.07
2023-03-11T23:14:30.688Z,16.33
2023-03-11T23:17:10.432Z,18.33
2023-03-11T23:19:40.588Z,19.57
2023-03-11T23:22:10.167Z,20.90
2023-03-11T23:24:43.662Z,16.37
2023-03-11T23:27:11.456Z,16.93
2023-03-11T23:29:39.596Z,17.87
2023-03-11T23:32:08.870Z,18.00
2023-03-11T23:34:38.280Z,19.23
2023-03-11T23:37:07.536Z,18.20
2023-03-11T23:39:36.150Z,15.77
2023-03-11T23:42:18.635Z,16.53
2023-03-11T23:45:00.668Z,14.93
2023-03-11T23:47:29.402Z,13.60
2023-03-11T23:49:58.586Z,15.53
2023-03-11T23:52:32.369Z,14.43
2023-03-11T23:55:00.699Z,15.40
2023-03-11T23:57:28.982Z,14.60
2023-03-11T23:59:57.652Z,12.20
